Time;durP1;ratioP1;P1;durP2;ratioP2;P2;SDS_P1;SDS_P2;PMS_P1;PMS_P2;Temp;Humidity;BMP_temperature;BMP_pressure;BME280_temperature;BME280_humidity;BME280_pressure;Samples;Min_cycle;Max_cycle;Signal;HPM_P1;HPM_P2
2022/07/22 00:01:25;;;;;;;13.73;12.63;;;;;;;;;;5014573;28;20197;-55
2022/07/22 00:03:51;;;;;;;13.60;12.33;;;;;;;;;;5013190;28;20209;-55
2022/07/22 00:06:18;;;;;;;15.43;13.87;;;;;;;;;;5014495;28;20303;-55
2022/07/22 00:08:44;;;;;;;17.00;15.23;;;;;;;;;;5014513;28;20194;-55
2022/07/22 00:11:10;;;;;;;16.43;14.93;;;;;;;;;;5014385;28;20240;-56
2022/07/22 00:13:36;;;;;;;16.63;15.23;;;;;;;;;;5014352;28;20216;-55
2022/07/22 00:16:02;;;;;;;15.90;14.50;;;;;;;;;;5014361;28;20574;-55
2022/07/22 00:18:29;;;;;;;16.13;14.50;;;;;;;;;;5014305;28;20239;-55
2022/07/22 00:20:55;;;;;;;15.43;14.13;;;;;;;;;;5013325;28;20259;-54
2022/07/22 00:23:22;;;;;;;17.97;16.20;;;;;;;;;;5014175;28;20713;-54
2022/07/22 00:25:48;;;;;;;19.63;17.83;;;;;;;;;;5014093;28;20212;-54
2022/07/22 00:28:14;;;;;;;20.53;18.53;;;;;;;;;;5014315;28;20575;-55
2022/07/22 00:30:40;;;;;;;19.07;17.13;;;;;;;;;;5014039;28;20201;-55
2022/07/22 00:33:07;;;;;;;17.00;15.57;;;;;;;;;;5013906;28;20196;-54
2022/07/22 00:35:32;;;;;;;16.80;15.40;;;;;;;;;;5014101;28;20197;-54
2022/07/22 00:37:58;;;;;;;14.40;13.20;;;;;;;;;;5013900;28;20619;-54
2022/07/22 00:40:26;;;;;;;12.00;11.00;;;;;;;;;;5013843;28;20217;-54
2022/07/22 00:42:52;;;;;;;7.73;7.03;;;;;;;;;;5013737;28;20625;-54
2022/07/22 00:45:18;;;;;;;6.40;5.80;;;;;;;;;;5013778;28;20218;-54
2022/07/22 00:47:44;;;;;;;6.97;5.37;;;;;;;;;;5013713;28;20732;-54
2022/07/22 00:50:10;;;;;;;5.43;4.90;;;;;;;;;;5013879;28;20285;-54
2022/07/22 00:52:37;;;;;;;4.80;4.40;;;;;;;;;;5013708;28;20211;-54
2022/07/22 00:55:04;;;;;;;4.60;4.20;;;;;;;;;;5013582;28;20210;-54
2022/07/22 00:57:32;;;;;;;6.60;4.00;;;;;;;;;;5013569;28;20250;-55
2022/07/22 00:59:58;;;;;;;3.73;3.33;;;;;;;;;;5013504;28;20233;-55
2022/07/22 01:02:24;;;;;;;4.30;3.67;;;;;;;;;;5013578;28;20199;-55
2022/07/22 01:04:50;;;;;;;5.43;3.30;;;;;;;;;;5013388;28;20209;-55
2022/07/22 01:07:16;;;;;;;3.97;3.27;;;;;;;;;;5013521;28;20280;-55
2022/07/22 01:09:43;;;;;;;3.50;2.97;;;;;;;;;;5013446;28;20217;-55
2022/07/22 01:12:09;;;;;;;4.17;2.87;;;;;;;;;;5013253;28;20234;-56
2022/07/22 01:14:36;;;;;;;3.43;2.77;;;;;;;;;;5013558;28;20270;-57
2022/07/22 01:17:03;;;;;;;3.13;2.83;;;;;;;;;;5013229;28;20214;-56
2022/07/22 01:19:29;;;;;;;5.73;2.80;;;;;;;;;;5013104;28;20479;-55
2022/07/22 01:21:56;;;;;;;3.23;2.67;;;;;;;;;;5012756;28;20207;-56
2022/07/22 01:24:22;;;;;;;3.10;2.80;;;;;;;;;;5013030;28;20210;-57
2022/07/22 01:26:48;;;;;;;3.23;2.80;;;;;;;;;;5013007;28;20666;-56
2022/07/22 01:29:14;;;;;;;3.83;2.93;;;;;;;;;;5012948;28;20632;-56
2022/07/22 01:31:40;;;;;;;3.53;2.80;;;;;;;;;;5013077;28;20204;-56
2022/07/22 01:34:06;;;;;;;3.40;3.10;;;;;;;;;;5012951;28;20721;-56
2022/07/22 01:36:32;;;;;;;3.20;2.90;;;;;;;;;;5013068;28;20282;-57
2022/07/22 01:39:00;;;;;;;3.17;2.30;;;;;;;;;;5012718;28;20676;-57
2022/07/22 01:41:26;;;;;;;3.20;2.60;;;;;;;;;;5012793;28;20201;-56
2022/07/22 01:43:52;;;;;;;4.30;2.50;;;;;;;;;;5012604;28;20208;-56
2022/07/22 01:46:18;;;;;;;4.80;2.90;;;;;;;;;;5012695;28;20302;-56
2022/07/22 01:48:44;;;;;;;2.97;2.77;;;;;;;;;;5012826;28;20546;-56
2022/07/22 01:51:10;;;;;;;4.37;2.43;;;;;;;;;;5012554;28;20209;-57
2022/07/22 01:53:36;;;;;;;4.20;2.60;;;;;;;;;;5012600;28;20203;-57
2022/07/22 01:56:03;;;;;;;4.17;3.00;;;;;;;;;;5012593;28;20198;-57
2022/07/22 01:58:29;;;;;;;3.27;2.60;;;;;;;;;;5012614;28;20276;-56
2022/07/22 02:00:55;;;;;;;3.17;2.97;;;;;;;;;;5012425;28;20199;-57
2022/07/22 02:03:21;;;;;;;5.80;3.50;;;;;;;;;;5012381;28;20758;-57
2022/07/22 02:05:47;;;;;;;3.33;3.03;;;;;;;;;;5012663;28;20205;-56
2022/07/22 02:08:13;;;;;;;3.87;3.00;;;;;;;;;;5012223;28;20597;-56
2022/07/22 02:10:40;;;;;;;5.30;3.33;;;;;;;;;;5012229;28;20208;-54
2022/07/22 02:13:08;;;;;;;4.73;3.70;;;;;;;;;;5012154;28;20210;-56
2022/07/22 02:15:34;;;;;;;4.00;3.70;;;;;;;;;;5012224;28;20246;-57
2022/07/22 02:18:00;;;;;;;4.23;3.83;;;;;;;;;;5012191;28;20200;-56
2022/07/22 02:20:26;;;;;;;4.27;3.87;;;;;;;;;;5012372;28;20226;-57
2022/07/22 02:22:52;;;;;;;4.53;3.60;;;;;;;;;;5012140;28;20201;-57
2022/07/22 02:25:18;;;;;;;4.03;3.63;;;;;;;;;;5012003;28;20200;-56
2022/07/22 02:27:44;;;;;;;3.67;3.33;;;;;;;;;;5012277;28;20583;-57
2022/07/22 02:30:12;;;;;;;5.60;4.27;;;;;;;;;;5011977;28;20191;-57
2022/07/22 02:32:38;;;;;;;6.50;3.47;;;;;;;;;;5011873;28;20611;-57
2022/07/22 02:35:04;;;;;;;4.20;3.60;;;;;;;;;;5011969;28;20230;-57
2022/07/22 02:37:30;;;;;;;4.27;3.03;;;;;;;;;;5012173;28;20461;-56
2022/07/22 02:39:56;;;;;;;5.07;3.47;;;;;;;;;;5011814;28;20276;-57
2022/07/22 02:42:22;;;;;;;7.07;3.90;;;;;;;;;;5012135;28;20210;-56
2022/07/22 02:44:48;;;;;;;3.07;2.77;;;;;;;;;;5018199;28;20223;-57
2022/07/22 02:47:16;;;;;;;5.27;3.00;;;;;;;;;;5018347;28;20652;-56
2022/07/22 02:49:42;;;;;;;2.80;2.60;;;;;;;;;;5018528;28;20194;-56
2022/07/22 02:52:08;;;;;;;5.50;3.03;;;;;;;;;;5018373;28;20201;-56
2022/07/22 02:54:34;;;;;;;3.63;3.00;;;;;;;;;;5018603;28;20257;-56
2022/07/22 02:57:00;;;;;;;2.80;2.53;;;;;;;;;;5018294;28;20252;-56
2022/07/22 02:59:26;;;;;;;4.03;2.80;;;;;;;;;;5018338;28;20233;-56
2022/07/22 03:01:52;;;;;;;2.40;2.20;;;;;;;;;;5018241;28;20200;-56
2022/07/22 03:04:19;;;;;;;2.43;2.23;;;;;;;;;;5018324;28;20220;-57
2022/07/22 03:06:45;;;;;;;3.67;2.57;;;;;;;;;;5018484;28;20206;-56
2022/07/22 03:09:11;;;;;;;4.53;2.47;;;;;;;;;;5018171;28;20690;-56
2022/07/22 03:11:37;;;;;;;3.27;2.63;;;;;;;;;;5018413;28;20201;-56
2022/07/22 03:14:03;;;;;;;5.80;3.30;;;;;;;;;;5018421;28;20624;-56
2022/07/22 03:16:29;;;;;;;3.10;2.47;;;;;;;;;;5018339;28;20190;-56
2022/07/22 03:18:55;;;;;;;4.07;2.60;;;;;;;;;;5017943;28;20265;-56
2022/07/22 03:21:22;;;;;;;4.40;2.93;;;;;;;;;;5016356;28;20259;-56
2022/07/22 03:23:53;;;;;;;3.17;2.53;;;;;;;;;;5018009;28;20209;-56
2022/07/22 03:26:19;;;;;;;4.80;2.90;;;;;;;;;;5017986;28;20612;-56
2022/07/22 03:28:46;;;;;;;4.93;3.10;;;;;;;;;;5018157;28;20206;-56
2022/07/22 03:31:13;;;;;;;5.57;2.90;;;;;;;;;;5017998;28;20682;-56
2022/07/22 03:33:39;;;;;;;3.57;3.07;;;;;;;;;;5018029;28;20198;-56
2022/07/22 03:36:08;;;;;;;5.07;3.03;;;;;;;;;;5017913;28;20202;-56
2022/07/22 03:38:35;;;;;;;3.37;3.07;;;;;;;;;;5017850;28;20228;-56
2022/07/22 03:41:01;;;;;;;3.00;2.70;;;;;;;;;;5017954;28;20210;-56
2022/07/22 03:43:27;;;;;;;4.97;3.17;;;;;;;;;;5017963;28;20202;-56
2022/07/22 03:45:53;;;;;;;7.80;3.43;;;;;;;;;;5017753;28;20316;-56
2022/07/22 03:48:19;;;;;;;3.10;2.80;;;;;;;;;;5017811;28;20710;-56
2022/07/22 03:50:45;;;;;;;4.93;3.23;;;;;;;;;;5018040;28;20206;-56
2022/07/22 03:53:11;;;;;;;6.90;3.23;;;;;;;;;;5017687;28;20232;-56
2022/07/22 03:55:39;;;;;;;5.77;4.10;;;;;;;;;;5014357;28;20201;-56
2022/07/22 03:58:04;;;;;;;7.70;4.10;;;;;;;;;;5014567;28;20620;-56
2022/07/22 04:00:31;;;;;;;6.63;4.73;;;;;;;;;;5014921;28;20212;-57
2022/07/22 04:02:57;;;;;;;7.20;4.63;;;;;;;;;;5014668;28;20659;-56
2022/07/22 04:05:23;;;;;;;6.90;4.70;;;;;;;;;;5014525;28;20197;-56
2022/07/22 04:07:48;;;;;;;7.23;4.60;;;;;;;;;;5014559;28;20558;-55
2022/07/22 04:10:14;;;;;;;5.67;4.20;;;;;;;;;;5014605;28;20280;-55
2022/07/22 04:12:42;;;;;;;4.83;3.53;;;;;;;;;;5014379;28;20556;-55
2022/07/22 04:15:08;;;;;;;5.33;3.90;;;;;;;;;;5014314;28;20198;-55
2022/07/22 04:17:34;;;;;;;5.97;4.03;;;;;;;;;;5014423;28;20582;-56
2022/07/22 04:20:01;;;;;;;4.07;3.40;;;;;;;;;;5014342;28;20288;-56
2022/07/22 04:22:27;;;;;;;6.13;4.03;;;;;;;;;;5014272;28;20201;-56
2022/07/22 04:24:53;;;;;;;3.73;3.30;;;;;;;;;;5014128;28;20743;-56
2022/07/22 04:27:19;;;;;;;5.40;4.00;;;;;;;;;;5014110;28;20667;-56
2022/07/22 04:29:46;;;;;;;5.00;3.80;;;;;;;;;;5014331;28;20201;-56
2022/07/22 04:32:12;;;;;;;7.83;4.60;;;;;;;;;;5014076;28;20220;-56
2022/07/22 04:34:38;;;;;;;4.97;4.40;;;;;;;;;;5014103;28;20209;-56
2022/07/22 04:37:04;;;;;;;5.60;4.40;;;;;;;;;;5013828;28;20206;-55
2022/07/22 04:39:30;;;;;;;8.20;4.20;;;;;;;;;;5013777;28;20226;-55
2022/07/22 04:41:56;;;;;;;6.70;4.43;;;;;;;;;;5014145;28;20617;-55
2022/07/22 04:44:22;;;;;;;6.97;4.00;;;;;;;;;;5013937;28;20250;-56
2022/07/22 04:46:49;;;;;;;7.03;4.50;;;;;;;;;;5013562;28;20255;-56
2022/07/22 04:49:15;;;;;;;8.73;5.03;;;;;;;;;;5013796;28;20213;-55
2022/07/22 04:51:41;;;;;;;4.67;4.20;;;;;;;;;;5013759;28;20208;-56
2022/07/22 04:54:07;;;;;;;4.57;4.03;;;;;;;;;;5013567;28;20332;-55
2022/07/22 04:56:33;;;;;;;6.60;4.50;;;;;;;;;;5013748;28;20233;-55
2022/07/22 04:58:59;;;;;;;5.00;4.50;;;;;;;;;;5013698;28;20242;-55
2022/07/22 05:01:25;;;;;;;5.50;4.50;;;;;;;;;;5013542;28;20216;-54
2022/07/22 05:03:53;;;;;;;7.57;4.50;;;;;;;;;;5013528;28;20660;-55
2022/07/22 05:06:19;;;;;;;6.07;4.47;;;;;;;;;;5013015;28;20211;-55
2022/07/22 05:08:45;;;;;;;6.00;4.53;;;;;;;;;;5013544;28;20607;-55
2022/07/22 05:11:11;;;;;;;10.07;4.53;;;;;;;;;;5013289;28;20203;-55
2022/07/22 05:13:37;;;;;;;9.67;5.23;;;;;;;;;;5013222;28;20197;-55
2022/07/22 05:16:04;;;;;;;8.40;5.03;;;;;;;;;;5013270;28;20232;-55
2022/07/22 05:18:30;;;;;;;6.03;3.87;;;;;;;;;;5013155;28;20730;-55
2022/07/22 05:20:57;;;;;;;6.93;4.47;;;;;;;;;;5013147;28;20659;-55
2022/07/22 05:23:23;;;;;;;7.13;4.20;;;;;;;;;;5012956;28;20301;-55
2022/07/22 05:25:49;;;;;;;5.87;4.53;;;;;;;;;;5013064;28;20205;-55
2022/07/22 05:28:15;;;;;;;6.77;4.20;;;;;;;;;;5013101;28;20208;-55
2022/07/22 05:30:41;;;;;;;5.10;3.90;;;;;;;;;;5013034;28;20587;-55
2022/07/22 05:33:07;;;;;;;5.00;3.90;;;;;;;;;;5012974;28;20200;-56
2022/07/22 05:35:33;;;;;;;4.90;3.60;;;;;;;;;;5012896;28;20727;-55
2022/07/22 05:38:00;;;;;;;6.97;3.40;;;;;;;;;;5011032;28;20202;-55
2022/07/22 05:40:26;;;;;;;5.80;3.10;;;;;;;;;;5012571;28;20241;-54
2022/07/22 05:42:52;;;;;;;5.07;3.00;;;;;;;;;;5012741;28;20677;-55
2022/07/22 05:45:18;;;;;;;4.73;2.97;;;;;;;;;;5012542;28;20248;-55
2022/07/22 05:47:44;;;;;;;3.30;2.97;;;;;;;;;;5012475;28;20649;-55
2022/07/22 05:50:10;;;;;;;6.90;3.57;;;;;;;;;;5011632;28;20281;-55
2022/07/22 05:52:37;;;;;;;4.57;3.30;;;;;;;;;;5012491;28;20610;-55
2022/07/22 05:55:04;;;;;;;11.40;3.70;;;;;;;;;;5012140;28;20614;-55
2022/07/22 05:57:30;;;;;;;8.33;3.10;;;;;;;;;;5010620;28;20209;-55
2022/07/22 05:59:56;;;;;;;5.33;3.30;;;;;;;;;;4992358;28;20219;-55
2022/07/22 06:02:22;;;;;;;8.13;3.20;;;;;;;;;;4992139;28;20703;-55
2022/07/22 06:04:49;;;;;;;4.63;2.93;;;;;;;;;;4992533;28;20655;-55
2022/07/22 06:07:15;;;;;;;6.17;3.70;;;;;;;;;;4992708;28;20219;-55
2022/07/22 06:09:41;;;;;;;5.30;3.27;;;;;;;;;;4992683;28;20538;-55
2022/07/22 06:12:08;;;;;;;3.90;3.23;;;;;;;;;;4992484;28;20209;-55
2022/07/22 06:14:36;;;;;;;7.63;3.67;;;;;;;;;;4992437;28;20727;-55
2022/07/22 06:17:02;;;;;;;5.73;3.27;;;;;;;;;;4992647;28;20202;-55
2022/07/22 06:19:29;;;;;;;5.80;3.10;;;;;;;;;;4991705;28;20301;-55
2022/07/22 06:21:55;;;;;;;6.03;2.87;;;;;;;;;;4992382;28;20619;-56
2022/07/22 06:24:21;;;;;;;5.50;3.13;;;;;;;;;;4992014;28;20565;-55
2022/07/22 06:26:47;;;;;;;6.03;3.50;;;;;;;;;;4992403;28;20298;-55
2022/07/22 06:29:15;;;;;;;7.93;3.20;;;;;;;;;;4992358;28;20566;-55
2022/07/22 06:31:41;;;;;;;7.17;3.10;;;;;;;;;;4992461;28;20210;-55
2022/07/22 06:34:07;;;;;;;9.77;3.30;;;;;;;;;;4992420;28;20293;-55
2022/07/22 06:36:33;;;;;;;7.27;3.13;;;;;;;;;;4992334;28;20199;-55
2022/07/22 06:38:59;;;;;;;5.83;3.10;;;;;;;;;;4992256;28;20305;-55
2022/07/22 06:41:25;;;;;;;8.73;3.50;;;;;;;;;;4992268;28;20285;-55
2022/07/22 06:43:52;;;;;;;4.43;2.50;;;;;;;;;;4992235;28;20718;-55
2022/07/22 06:46:19;;;;;;;9.47;3.10;;;;;;;;;;4992213;28;20301;-56
2022/07/22 06:48:45;;;;;;;6.50;2.67;;;;;;;;;;4992305;28;20265;-55
2022/07/22 06:51:11;;;;;;;7.57;2.87;;;;;;;;;;4992304;28;20206;-55
2022/07/22 06:53:37;;;;;;;5.97;2.93;;;;;;;;;;4992099;28;20234;-55
2022/07/22 06:56:03;;;;;;;5.30;2.53;;;;;;;;;;4991315;28;20211;-55
2022/07/22 06:58:29;;;;;;;7.73;2.80;;;;;;;;;;4992150;28;20254;-55
2022/07/22 07:00:55;;;;;;;8.93;2.67;;;;;;;;;;4992121;28;20207;-56
2022/07/22 07:03:25;;;;;;;6.00;2.77;;;;;;;;;;4992278;28;20208;-55
2022/07/22 07:05:51;;;;;;;7.87;2.47;;;;;;;;;;4992037;28;20211;-55
2022/07/22 07:08:17;;;;;;;8.87;2.80;;;;;;;;;;4991953;28;20257;-55
2022/07/22 07:10:43;;;;;;;5.73;2.73;;;;;;;;;;4992028;28;20191;-55
2022/07/22 07:13:09;;;;;;;7.27;2.77;;;;;;;;;;4992069;28;20294;-56
2022/07/22 07:15:35;;;;;;;7.57;2.70;;;;;;;;;;4991924;28;20207;-55
2022/07/22 07:18:01;;;;;;;10.10;2.70;;;;;;;;;;4992075;28;20211;-55
2022/07/22 07:20:28;;;;;;;6.07;2.37;;;;;;;;;;4991805;28;20223;-56
2022/07/22 07:22:55;;;;;;;8.43;3.00;;;;;;;;;;4991925;28;20204;-56
2022/07/22 07:25:21;;;;;;;7.33;2.73;;;;;;;;;;4992067;28;20256;-56
2022/07/22 07:27:47;;;;;;;6.67;2.73;;;;;;;;;;4992023;28;20204;-56
2022/07/22 07:30:13;;;;;;;7.90;2.90;;;;;;;;;;4994278;28;20192;-56
2022/07/22 07:32:39;;;;;;;7.17;2.87;;;;;;;;;;4995496;28;20194;-56
2022/07/22 07:35:06;;;;;;;6.23;2.70;;;;;;;;;;4995464;28;20207;-56
2022/07/22 07:37:33;;;;;;;8.00;3.43;;;;;;;;;;4995655;28;20204;-56
2022/07/22 07:39:59;;;;;;;8.57;3.07;;;;;;;;;;4995573;28;20233;-57
2022/07/22 07:42:26;;;;;;;9.97;3.03;;;;;;;;;;4995020;28;20234;-56
2022/07/22 07:44:52;;;;;;;5.83;2.97;;;;;;;;;;4995497;28;20247;-57
2022/07/22 07:47:20;;;;;;;5.67;2.83;;;;;;;;;;4994962;28;20244;-56
2022/07/22 07:49:46;;;;;;;4.47;2.70;;;;;;;;;;4995349;28;20258;-56
2022/07/22 07:52:12;;;;;;;6.20;2.80;;;;;;;;;;4995223;28;20204;-57
2022/07/22 07:54:39;;;;;;;6.97;2.60;;;;;;;;;;4994974;28;20214;-59
2022/07/22 07:57:06;;;;;;;5.60;2.80;;;;;;;;;;4995151;28;20211;-57
2022/07/22 07:59:32;;;;;;;3.73;2.37;;;;;;;;;;4994890;28;20232;-54
2022/07/22 08:01:57;;;;;;;6.90;2.60;;;;;;;;;;4994845;28;20245;-55
2022/07/22 08:04:23;;;;;;;5.77;2.60;;;;;;;;;;4994920;28;20207;-54
2022/07/22 08:06:49;;;;;;;5.57;2.53;;;;;;;;;;4994903;28;20295;-56
2022/07/22 08:09:15;;;;;;;7.93;2.50;;;;;;;;;;4994972;28;20204;-55
2022/07/22 08:11:43;;;;;;;3.83;2.50;;;;;;;;;;4994617;28;20602;-55
2022/07/22 08:14:09;;;;;;;4.73;2.40;;;;;;;;;;4994779;28;20205;-55
2022/07/22 08:16:35;;;;;;;5.67;2.43;;;;;;;;;;4994657;28;20212;-56
2022/07/22 08:19:01;;;;;;;4.83;2.47;;;;;;;;;;4994700;28;20223;-57
2022/07/22 08:21:27;;;;;;;5.40;2.90;;;;;;;;;;4994494;28;20226;-57
2022/07/22 08:23:53;;;;;;;5.80;2.60;;;;;;;;;;4994393;28;20230;-57
2022/07/22 08:26:19;;;;;;;6.37;2.90;;;;;;;;;;4994611;28;20297;-57
2022/07/22 08:28:46;;;;;;;6.73;2.97;;;;;;;;;;4994621;28;20284;-57
2022/07/22 08:31:12;;;;;;;9.80;3.20;;;;;;;;;;4994613;28;20212;-56
2022/07/22 08:33:38;;;;;;;9.03;3.00;;;;;;;;;;4994253;28;20614;-57
2022/07/22 08:36:04;;;;;;;7.50;3.13;;;;;;;;;;4994487;28;20279;-57
2022/07/22 08:38:30;;;;;;;7.10;2.90;;;;;;;;;;4994327;28;20198;-57
2022/07/22 08:40:57;;;;;;;6.13;3.00;;;;;;;;;;4993712;28;20336;-57
2022/07/22 08:43:23;;;;;;;7.07;3.20;;;;;;;;;;4994273;28;20195;-58
2022/07/22 08:45:50;;;;;;;7.77;3.00;;;;;;;;;;4993993;28;20730;-57
2022/07/22 08:48:16;;;;;;;6.00;3.50;;;;;;;;;;4994263;28;20600;-58
2022/07/22 08:50:42;;;;;;;8.07;3.47;;;;;;;;;;4993935;28;20216;-57
2022/07/22 08:53:10;;;;;;;6.30;3.40;;;;;;;;;;4993816;28;20611;-57
2022/07/22 08:55:40;;;;;;;8.40;3.40;;;;;;;;;;4993742;28;20204;-57
2022/07/22 08:58:06;;;;;;;9.20;3.57;;;;;;;;;;4993553;28;20205;-57
2022/07/22 09:00:32;;;;;;;6.37;3.20;;;;;;;;;;4993659;28;20275;-57
2022/07/22 09:02:59;;;;;;;8.80;3.00;;;;;;;;;;4994032;28;20229;-57
2022/07/22 09:05:32;;;;;;;5.17;2.80;;;;;;;;;;4993768;28;20719;-57
2022/07/22 09:07:59;;;;;;;6.00;3.13;;;;;;;;;;4993802;28;20194;-57
2022/07/22 09:10:30;;;;;;;6.33;3.00;;;;;;;;;;4993731;28;20208;-57
2022/07/22 09:13:01;;;;;;;8.63;3.90;;;;;;;;;;4993949;28;20289;-56
2022/07/22 09:15:27;;;;;;;7.67;3.43;;;;;;;;;;4993815;28;20229;-56
2022/07/22 09:17:54;;;;;;;5.10;3.10;;;;;;;;;;4993856;28;20205;-57
2022/07/22 09:20:21;;;;;;;5.43;2.90;;;;;;;;;;4993632;28;20233;-57
2022/07/22 09:22:48;;;;;;;10.43;3.43;;;;;;;;;;4993504;28;20305;-57
2022/07/22 09:25:21;;;;;;;10.43;3.50;;;;;;;;;;4993659;28;20565;-57
2022/07/22 09:27:48;;;;;;;8.30;3.43;;;;;;;;;;4993478;28;20201;-57
2022/07/22 09:30:14;;;;;;;4.33;2.70;;;;;;;;;;4993662;28;20711;-57
2022/07/22 09:32:41;;;;;;;6.70;2.97;;;;;;;;;;4993558;28;20198;-57
2022/07/22 09:35:07;;;;;;;7.23;3.40;;;;;;;;;;4993434;28;20280;-57
2022/07/22 09:37:35;;;;;;;3.57;3.10;;;;;;;;;;4993178;28;20253;-57
2022/07/22 09:40:11;;;;;;;5.73;3.17;;;;;;;;;;4991875;28;20233;-57
2022/07/22 09:42:44;;;;;;;5.43;3.07;;;;;;;;;;4993248;28;20190;-57
2022/07/22 09:45:10;;;;;;;6.00;2.77;;;;;;;;;;4993243;28;20218;-57
2022/07/22 09:47:36;;;;;;;5.87;2.80;;;;;;;;;;4992929;28;20251;-58
2022/07/22 09:50:02;;;;;;;7.93;3.33;;;;;;;;;;4993181;28;20199;-58
2022/07/22 09:52:28;;;;;;;5.60;2.90;;;;;;;;;;4992371;28;20250;-58
2022/07/22 09:54:55;;;;;;;5.50;2.60;;;;;;;;;;4993119;28;20206;-58
2022/07/22 09:57:21;;;;;;;4.57;2.67;;;;;;;;;;4993071;28;20233;-58
2022/07/22 09:59:47;;;;;;;5.90;2.80;;;;;;;;;;4992798;28;20640;-57
2022/07/22 10:02:15;;;;;;;8.43;3.17;;;;;;;;;;4992976;28;20209;-57
2022/07/22 10:04:42;;;;;;;5.10;2.93;;;;;;;;;;4992865;28;20224;-57
2022/07/22 10:07:08;;;;;;;6.23;3.03;;;;;;;;;;4992821;28;20229;-56
2022/07/22 10:09:34;;;;;;;6.40;3.27;;;;;;;;;;4992310;28;20186;-58
2022/07/22 10:12:02;;;;;;;5.57;2.80;;;;;;;;;;4993079;28;20197;-57
2022/07/22 10:14:28;;;;;;;6.63;2.83;;;;;;;;;;4992855;28;20245;-56
2022/07/22 10:16:55;;;;;;;8.43;2.93;;;;;;;;;;4992752;28;20222;-57
2022/07/22 10:19:21;;;;;;;7.03;2.73;;;;;;;;;;4992559;28;20735;-58
2022/07/22 10:21:47;;;;;;;5.70;2.57;;;;;;;;;;4992719;28;20190;-58
2022/07/22 10:24:14;;;;;;;3.87;2.63;;;;;;;;;;4992915;28;20620;-57
2022/07/22 10:26:50;;;;;;;4.00;2.67;;;;;;;;;;4992485;28;20201;-57
2022/07/22 10:29:27;;;;;;;8.33;3.80;;;;;;;;;;4992690;28;20203;-58
2022/07/22 10:32:08;;;;;;;8.77;3.07;;;;;;;;;;4992452;28;20698;-58
2022/07/22 10:34:34;;;;;;;9.67;3.10;;;;;;;;;;4992005;28;20686;-58
2022/07/22 10:37:00;;;;;;;9.43;3.27;;;;;;;;;;4992154;28;20202;-57
2022/07/22 10:39:26;;;;;;;32.30;3.53;;;;;;;;;;4991975;28;20226;-57
2022/07/22 10:41:52;;;;;;;6.03;3.13;;;;;;;;;;4991989;28;20209;-58
2022/07/22 10:44:46;;;;;;;6.30;2.83;;;;;;;;;;4992353;28;20230;-58
2022/07/22 10:47:12;;;;;;;9.10;3.00;;;;;;;;;;4992227;28;20245;-57
2022/07/22 10:49:38;;;;;;;7.93;2.60;;;;;;;;;;4992302;28;20281;-57
2022/07/22 10:52:16;;;;;;;5.80;3.07;;;;;;;;;;4992368;28;20281;-57
2022/07/22 10:55:01;;;;;;;4.67;2.43;;;;;;;;;;4992352;28;20260;-57
2022/07/22 10:57:30;;;;;;;7.80;3.20;;;;;;;;;;4992157;28;20586;-56
2022/07/22 10:59:57;;;;;;;6.17;2.90;;;;;;;;;;4992166;28;20364;-56
2022/07/22 11:02:23;;;;;;;6.97;3.20;;;;;;;;;;4992252;28;20622;-57
2022/07/22 11:04:49;;;;;;;6.60;2.73;;;;;;;;;;4993654;28;20285;-57
2022/07/22 11:07:15;;;;;;;4.00;3.07;;;;;;;;;;4996104;28;20292;-56
2022/07/22 11:09:41;;;;;;;8.20;3.27;;;;;;;;;;4994306;28;20205;-57
2022/07/22 11:12:12;;;;;;;8.33;2.90;;;;;;;;;;4996138;28;20604;-57
2022/07/22 11:14:38;;;;;;;6.37;2.87;;;;;;;;;;4996076;28;20205;-57
2022/07/22 11:17:06;;;;;;;7.70;3.27;;;;;;;;;;4995868;28;20260;-57
2022/07/22 11:19:32;;;;;;;7.87;3.00;;;;;;;;;;4995922;28;20260;-57
2022/07/22 11:22:01;;;;;;;7.13;3.23;;;;;;;;;;4995899;28;20660;-57
2022/07/22 11:24:27;;;;;;;5.90;2.93;;;;;;;;;;4995978;28;20256;-56
2022/07/22 11:26:54;;;;;;;5.87;2.97;;;;;;;;;;4995787;28;20195;-57
2022/07/22 11:29:25;;;;;;;5.83;3.03;;;;;;;;;;4995967;28;20225;-56
2022/07/22 11:31:51;;;;;;;7.20;2.83;;;;;;;;;;4995788;28;20209;-57
2022/07/22 11:34:20;;;;;;;6.23;2.83;;;;;;;;;;4995937;28;20206;-57
2022/07/22 11:36:46;;;;;;;7.03;2.90;;;;;;;;;;4995690;28;20221;-57
2022/07/22 11:39:13;;;;;;;5.07;3.00;;;;;;;;;;4995574;28;20218;-56
2022/07/22 11:41:39;;;;;;;7.07;2.80;;;;;;;;;;4995630;28;20754;-58
2022/07/22 11:44:06;;;;;;;9.23;2.90;;;;;;;;;;4995637;28;20241;-57
2022/07/22 11:46:35;;;;;;;5.77;2.67;;;;;;;;;;4995419;28;20727;-58
2022/07/22 11:49:01;;;;;;;6.33;2.90;;;;;;;;;;4995409;28;20208;-55
2022/07/22 11:51:30;;;;;;;5.70;2.87;;;;;;;;;;4994042;28;20206;-56
2022/07/22 11:53:56;;;;;;;5.83;2.47;;;;;;;;;;4995245;28;20237;-56
2022/07/22 11:56:22;;;;;;;5.83;2.60;;;;;;;;;;4995301;28;20198;-56
2022/07/22 11:58:49;;;;;;;5.37;2.40;;;;;;;;;;4995128;28;20534;-56
2022/07/22 12:01:16;;;;;;;7.17;3.53;;;;;;;;;;4995380;28;20210;-56
2022/07/22 12:03:44;;;;;;;6.07;2.60;;;;;;;;;;4995101;28;20269;-56
2022/07/22 12:06:12;;;;;;;8.27;2.83;;;;;;;;;;4995099;28;20202;-57
2022/07/22 12:08:42;;;;;;;5.20;2.57;;;;;;;;;;4995051;28;20201;-56
2022/07/22 12:11:08;;;;;;;6.70;2.53;;;;;;;;;;4994980;28;20294;-56
2022/07/22 12:13:34;;;;;;;4.10;2.30;;;;;;;;;;4995064;28;20198;-56
2022/07/22 12:16:00;;;;;;;4.73;2.67;;;;;;;;;;4993720;28;20265;-57
2022/07/22 12:18:28;;;;;;;4.90;2.50;;;;;;;;;;4994723;28;20207;-57
2022/07/22 12:20:55;;;;;;;3.67;2.60;;;;;;;;;;4994477;28;20234;-56
2022/07/22 12:23:21;;;;;;;6.97;2.57;;;;;;;;;;4994657;28;20273;-57
2022/07/22 12:25:53;;;;;;;4.87;2.50;;;;;;;;;;4994760;28;20198;-57
2022/07/22 12:28:19;;;;;;;4.83;2.90;;;;;;;;;;4994478;28;20265;-56
2022/07/22 12:30:45;;;;;;;4.37;2.33;;;;;;;;;;4994572;28;20190;-56
2022/07/22 12:33:14;;;;;;;7.07;2.37;;;;;;;;;;4994565;28;20241;-56
2022/07/22 12:35:39;;;;;;;5.00;2.80;;;;;;;;;;4994565;28;20292;-56
2022/07/22 12:38:06;;;;;;;5.20;2.83;;;;;;;;;;4994243;28;20294;-55
2022/07/22 12:40:32;;;;;;;4.57;2.53;;;;;;;;;;4994381;28;20230;-56
2022/07/22 12:43:01;;;;;;;7.13;2.60;;;;;;;;;;4994106;28;20651;-56
2022/07/22 12:45:28;;;;;;;2.53;2.33;;;;;;;;;;4993993;28;20222;-57
2022/07/22 12:48:03;;;;;;;3.97;2.60;;;;;;;;;;4993807;28;20238;-55
2022/07/22 12:50:30;;;;;;;4.17;2.57;;;;;;;;;;4994112;28;20198;-54
2022/07/22 12:52:56;;;;;;;3.80;2.40;;;;;;;;;;4993835;28;20198;-53
2022/07/22 12:55:23;;;;;;;5.73;2.80;;;;;;;;;;4993909;28;20614;-53
2022/07/22 12:57:49;;;;;;;8.23;2.93;;;;;;;;;;4993865;28;20574;-54
2022/07/22 13:00:21;;;;;;;4.73;2.83;;;;;;;;;;4994277;28;20340;-54
2022/07/22 13:02:47;;;;;;;6.53;2.93;;;;;;;;;;4993745;28;20297;-54
2022/07/22 13:05:13;;;;;;;5.63;2.60;;;;;;;;;;4993508;28;20277;-54
2022/07/22 13:07:39;;;;;;;7.00;2.60;;;;;;;;;;4993489;28;20594;-54
2022/07/22 13:10:06;;;;;;;3.93;2.57;;;;;;;;;;4993554;28;20301;-55
2022/07/22 13:12:32;;;;;;;5.10;2.50;;;;;;;;;;4993872;28;20576;-55
2022/07/22 13:14:58;;;;;;;8.00;3.00;;;;;;;;;;4993592;28;20202;-54
2022/07/22 13:17:25;;;;;;;6.53;2.80;;;;;;;;;;4993394;28;20206;-55
2022/07/22 13:19:51;;;;;;;3.90;2.73;;;;;;;;;;4993555;28;20218;-54
2022/07/22 13:22:17;;;;;;;5.30;3.10;;;;;;;;;;4993822;28;20290;-54
2022/07/22 13:24:43;;;;;;;5.63;3.33;;;;;;;;;;4993728;28;20245;-54
2022/07/22 13:27:09;;;;;;;6.27;2.80;;;;;;;;;;4993275;28;20209;-54
2022/07/22 13:29:35;;;;;;;4.73;2.43;;;;;;;;;;4993666;28;20203;-55
2022/07/22 13:32:01;;;;;;;8.07;3.20;;;;;;;;;;4993545;28;20206;-55
2022/07/22 13:34:29;;;;;;;7.07;3.07;;;;;;;;;;4993650;28;20641;-55
2022/07/22 13:36:55;;;;;;;5.93;3.07;;;;;;;;;;4993410;28;20237;-55
2022/07/22 13:39:22;;;;;;;5.43;2.80;;;;;;;;;;4993364;28;20218;-55
2022/07/22 13:41:48;;;;;;;8.50;2.60;;;;;;;;;;4993377;28;20241;-55
2022/07/22 13:44:14;;;;;;;8.13;2.63;;;;;;;;;;4992875;28;20225;-54
2022/07/22 13:46:40;;;;;;;6.30;2.77;;;;;;;;;;4993226;28;20668;-54
2022/07/22 13:49:06;;;;;;;9.30;2.57;;;;;;;;;;4993124;28;20622;-54
2022/07/22 13:51:33;;;;;;;5.53;2.37;;;;;;;;;;4993242;28;20249;-55
2022/07/22 13:53:59;;;;;;;7.53;2.93;;;;;;;;;;4993192;28;20202;-54
2022/07/22 13:56:25;;;;;;;5.37;2.73;;;;;;;;;;4993289;28;20198;-57
2022/07/22 13:58:52;;;;;;;3.60;2.50;;;;;;;;;;4992874;28;20194;-55
2022/07/22 14:01:18;;;;;;;8.47;2.80;;;;;;;;;;4993009;28;20237;-54
2022/07/22 14:03:44;;;;;;;6.67;2.77;;;;;;;;;;4992753;28;20201;-55
2022/07/22 14:06:10;;;;;;;4.43;2.87;;;;;;;;;;4992887;28;20605;-54
2022/07/22 14:08:37;;;;;;;7.23;2.67;;;;;;;;;;4992871;28;20293;-54
2022/07/22 14:11:03;;;;;;;6.67;3.00;;;;;;;;;;4992616;28;20277;-55
2022/07/22 14:13:30;;;;;;;7.00;2.63;;;;;;;;;;4992984;28;20202;-55
2022/07/22 14:15:56;;;;;;;11.97;2.63;;;;;;;;;;4992696;28;20208;-54
2022/07/22 14:18:22;;;;;;;3.67;2.57;;;;;;;;;;4992685;28;20198;-55
2022/07/22 14:20:48;;;;;;;5.13;2.70;;;;;;;;;;4992439;28;20226;-54
2022/07/22 14:23:16;;;;;;;7.03;2.77;;;;;;;;;;4992718;28;20235;-55
2022/07/22 14:25:43;;;;;;;6.40;2.73;;;;;;;;;;4992746;28;20260;-55
2022/07/22 14:28:09;;;;;;;5.77;2.90;;;;;;;;;;4992818;28;20194;-55
2022/07/22 14:30:36;;;;;;;4.23;2.10;;;;;;;;;;4992605;28;20197;-55
2022/07/22 14:33:02;;;;;;;5.20;2.80;;;;;;;;;;4992575;28;20225;-55
2022/07/22 14:35:28;;;;;;;6.80;3.10;;;;;;;;;;4992685;28;20222;-55
2022/07/22 14:37:54;;;;;;;3.67;2.83;;;;;;;;;;4992483;28;20205;-55